Time;durP1;ratioP1;P1;durP2;ratioP2;P2;SDS_P1;SDS_P2;PMS_P1;PMS_P2;Temp;Humidity;BMP_temperature;BMP_pressure;BME280_temperature;BME280_humidity;BME280_pressure;Samples;Min_cycle;Max_cycle;Signal;HPM_P1;HPM_P2
2022/10/17 00:02:09;;;;;;;4.47;2.00;;;;;;;;;;5125851;28;20203;-67
2022/10/17 00:04:35;;;;;;;2.88;1.98;;;;;;;;;;5125522;28;20195;-67
2022/10/17 00:07:01;;;;;;;5.00;1.90;;;;;;;;;;5125310;28;20226;-68
2022/10/17 00:09:28;;;;;;;6.82;2.03;;;;;;;;;;5125120;28;20393;-68
2022/10/17 00:11:55;;;;;;;2.40;2.13;;;;;;;;;;5125182;28;20195;-68
2022/10/17 00:14:22;;;;;;;4.13;1.67;;;;;;;;;;5125270;28;20247;-68
2022/10/17 00:16:48;;;;;;;7.00;1.92;;;;;;;;;;5125435;27;20191;-68
2022/10/17 00:19:14;;;;;;;5.45;2.00;;;;;;;;;;5124803;28;20195;-68
2022/10/17 00:21:40;;;;;;;2.50;1.95;;;;;;;;;;5125193;28;20348;-68
2022/10/17 00:24:07;;;;;;;3.53;1.77;;;;;;;;;;5125120;27;20209;-68
2022/10/17 00:26:33;;;;;;;7.07;1.88;;;;;;;;;;5124889;28;20214;-68
2022/10/17 00:29:01;;;;;;;3.50;2.03;;;;;;;;;;5124330;28;20412;-68
2022/10/17 00:31:27;;;;;;;4.43;2.65;;;;;;;;;;5124621;28;20195;-68
2022/10/17 00:33:53;;;;;;;7.05;1.85;;;;;;;;;;5124969;28;20270;-67
2022/10/17 00:36:21;;;;;;;4.03;2.00;;;;;;;;;;5124840;28;20228;-68
2022/10/17 00:38:49;;;;;;;5.40;1.90;;;;;;;;;;5124483;28;20412;-67
2022/10/17 00:41:17;;;;;;;2.78;1.70;;;;;;;;;;5124564;28;20203;-69
2022/10/17 00:43:51;;;;;;;5.97;2.20;;;;;;;;;;5124621;28;20201;-68
2022/10/17 00:46:18;;;;;;;5.80;1.58;;;;;;;;;;5124747;28;20221;-68
2022/10/17 00:48:45;;;;;;;1.70;1.60;;;;;;;;;;5124320;28;20202;-68
2022/10/17 00:51:11;;;;;;;3.33;1.65;;;;;;;;;;5124714;28;20209;-68
2022/10/17 00:53:39;;;;;;;5.38;2.05;;;;;;;;;;5124462;28;20203;-68
2022/10/17 00:56:06;;;;;;;5.13;1.80;;;;;;;;;;5124621;28;20199;-68
2022/10/17 00:58:32;;;;;;;4.28;1.73;;;;;;;;;;5124292;28;20217;-68
2022/10/17 01:00:58;;;;;;;13.32;2.53;;;;;;;;;;5124396;28;20389;-68
2022/10/17 01:03:26;;;;;;;1.85;1.75;;;;;;;;;;5124228;28;20205;-68
2022/10/17 01:05:52;;;;;;;2.75;1.98;;;;;;;;;;5124159;28;20203;-68
2022/10/17 01:08:19;;;;;;;3.13;1.95;;;;;;;;;;5123844;28;20195;-68
2022/10/17 01:10:51;;;;;;;4.28;1.90;;;;;;;;;;5124308;28;20201;-68
2022/10/17 01:13:23;;;;;;;6.32;2.20;;;;;;;;;;5124145;28;20266;-68
2022/10/17 01:15:54;;;;;;;10.07;1.98;;;;;;;;;;5124065;28;20195;-68
2022/10/17 01:18:29;;;;;;;8.57;2.00;;;;;;;;;;5123816;28;20194;-68
2022/10/17 01:21:13;;;;;;;6.30;1.70;;;;;;;;;;5123805;28;20208;-68
2022/10/17 01:23:58;;;;;;;5.05;1.95;;;;;;;;;;5123969;28;20199;-68
2022/10/17 01:26:31;;;;;;;8.38;2.17;;;;;;;;;;5123716;28;20504;-68
2022/10/17 01:29:04;;;;;;;7.32;2.40;;;;;;;;;;5123608;28;20436;-68
2022/10/17 01:31:34;;;;;;;8.25;2.05;;;;;;;;;;5123622;28;20354;-68
2022/10/17 01:34:04;;;;;;;4.40;2.03;;;;;;;;;;5123818;28;20383;-68
2022/10/17 01:36:37;;;;;;;5.07;1.95;;;;;;;;;;5123466;28;20298;-68
2022/10/17 01:39:10;;;;;;;14.05;2.45;;;;;;;;;;5123179;27;20217;-68
2022/10/17 01:41:40;;;;;;;4.80;2.47;;;;;;;;;;5123591;27;20230;-68
2022/10/17 01:44:09;;;;;;;5.25;2.60;;;;;;;;;;5123622;28;20201;-68
2022/10/17 01:49:40;;;;;;;4.82;2.60;;;;;;;;;;5122906;28;20211;-68
2022/10/17 01:52:09;;;;;;;5.60;2.70;;;;;;;;;;5123294;28;20241;-68
2022/10/17 01:54:39;;;;;;;6.05;3.00;;;;;;;;;;5123258;27;20201;-68
2022/10/17 01:57:08;;;;;;;2.80;2.60;;;;;;;;;;5123363;28;20191;-68
2022/10/17 01:59:36;;;;;;;5.32;2.88;;;;;;;;;;5122980;28;20203;-68
2022/10/17 02:02:03;;;;;;;4.80;2.90;;;;;;;;;;5123210;28;20502;-68
2022/10/17 02:04:29;;;;;;;3.70;2.63;;;;;;;;;;5123124;28;20614;-67
2022/10/17 02:06:57;;;;;;;6.88;3.15;;;;;;;;;;5122873;28;20538;-67
2022/10/17 02:09:24;;;;;;;5.47;3.45;;;;;;;;;;5122937;28;20199;-68
2022/10/17 02:11:55;;;;;;;4.80;2.58;;;;;;;;;;5123248;28;20392;-68
2022/10/17 02:14:29;;;;;;;11.10;3.20;;;;;;;;;;5123163;28;20199;-68
2022/10/17 02:16:58;;;;;;;12.27;2.90;;;;;;;;;;5123657;28;20498;-69
2022/10/17 02:19:30;;;;;;;4.88;2.75;;;;;;;;;;5122657;28;20195;-68
2022/10/17 02:22:04;;;;;;;7.00;3.05;;;;;;;;;;5123089;28;20505;-68
2022/10/17 02:24:33;;;;;;;8.10;2.67;;;;;;;;;;5122684;28;20201;-68
2022/10/17 02:27:03;;;;;;;5.40;2.72;;;;;;;;;;5122595;28;20218;-68
2022/10/17 02:29:31;;;;;;;4.55;2.58;;;;;;;;;;5122253;28;20222;-68
2022/10/17 02:31:59;;;;;;;4.45;2.95;;;;;;;;;;5122743;28;20517;-68
2022/10/17 02:34:27;;;;;;;8.32;2.88;;;;;;;;;;5122933;28;20207;-68
2022/10/17 02:36:56;;;;;;;5.47;2.55;;;;;;;;;;5122926;28;20536;-68
2022/10/17 02:39:24;;;;;;;6.85;2.75;;;;;;;;;;5122468;28;20202;-68
2022/10/17 02:41:52;;;;;;;5.63;2.42;;;;;;;;;;5122408;28;20210;-68
2022/10/17 02:44:19;;;;;;;7.15;2.63;;;;;;;;;;5122458;28;20420;-68
2022/10/17 02:46:49;;;;;;;8.02;2.58;;;;;;;;;;5122296;28;20226;-67
2022/10/17 02:49:17;;;;;;;5.63;2.83;;;;;;;;;;5122075;28;20191;-67
2022/10/17 02:51:45;;;;;;;5.10;2.38;;;;;;;;;;5122536;28;20494;-68
2022/10/17 02:54:15;;;;;;;5.22;2.75;;;;;;;;;;5121897;28;20195;-68
2022/10/17 02:56:45;;;;;;;5.78;2.75;;;;;;;;;;5122408;28;20191;-68
2022/10/17 02:59:14;;;;;;;4.55;2.45;;;;;;;;;;5121995;28;20195;-68
2022/10/17 03:01:40;;;;;;;7.43;2.92;;;;;;;;;;5122130;28;20202;-68
2022/10/17 03:04:08;;;;;;;8.73;2.53;;;;;;;;;;5122456;28;20459;-68
2022/10/17 03:06:34;;;;;;;10.50;2.38;;;;;;;;;;5122400;28;20215;-68
2022/10/17 03:09:01;;;;;;;6.38;2.30;;;;;;;;;;5122152;28;20202;-68
2022/10/17 03:11:27;;;;;;;6.25;2.95;;;;;;;;;;5122290;28;20216;-68
2022/10/17 03:13:55;;;;;;;4.72;2.55;;;;;;;;;;5122253;28;20195;-68
2022/10/17 03:16:21;;;;;;;9.88;2.55;;;;;;;;;;5122363;28;20195;-68
2022/10/17 03:18:48;;;;;;;3.80;2.70;;;;;;;;;;5121976;28;20206;-68
2022/10/17 03:21:14;;;;;;;8.82;2.67;;;;;;;;;;5122232;28;20494;-68
2022/10/17 03:23:40;;;;;;;2.65;2.15;;;;;;;;;;5122126;28;20195;-68
2022/10/17 03:26:07;;;;;;;7.15;2.38;;;;;;;;;;5122061;28;20195;-68
2022/10/17 03:28:33;;;;;;;11.65;2.53;;;;;;;;;;5121648;28;20415;-68
2022/10/17 03:31:06;;;;;;;4.80;2.28;;;;;;;;;;5122212;28;20387;-68
2022/10/17 03:33:32;;;;;;;6.57;2.42;;;;;;;;;;5122072;28;20201;-68
2022/10/17 03:35:58;;;;;;;11.82;2.70;;;;;;;;;;5121991;28;20201;-68
2022/10/17 03:38:24;;;;;;;6.68;2.80;;;;;;;;;;5121745;28;20206;-68
2022/10/17 03:40:54;;;;;;;6.55;2.72;;;;;;;;;;5121853;28;20203;-68
2022/10/17 03:43:21;;;;;;;4.97;2.63;;;;;;;;;;5121896;28;20467;-68
2022/10/17 03:45:47;;;;;;;9.95;2.72;;;;;;;;;;5121900;28;20199;-68
2022/10/17 03:48:14;;;;;;;7.40;2.65;;;;;;;;;;5121915;28;20518;-68
2022/10/17 03:50:41;;;;;;;7.63;2.35;;;;;;;;;;5121814;28;20195;-68
2022/10/17 03:53:07;;;;;;;5.80;2.67;;;;;;;;;;5121783;28;20201;-68
2022/10/17 03:55:33;;;;;;;7.45;2.70;;;;;;;;;;5121750;28;20218;-68
2022/10/17 03:58:00;;;;;;;6.05;2.40;;;;;;;;;;5121806;28;20234;-68
2022/10/17 04:00:26;;;;;;;7.05;2.65;;;;;;;;;;5121721;28;20202;-68
2022/10/17 04:02:52;;;;;;;6.20;2.97;;;;;;;;;;5121656;28;20194;-68
2022/10/17 04:05:20;;;;;;;5.60;2.60;;;;;;;;;;5123369;28;20187;-68
2022/10/17 04:07:46;;;;;;;6.22;2.85;;;;;;;;;;5125089;28;20215;-68
2022/10/17 04:10:13;;;;;;;7.68;2.80;;;;;;;;;;5125258;28;20195;-68
2022/10/17 04:12:39;;;;;;;5.32;2.63;;;;;;;;;;5125547;28;20209;-69
2022/10/17 04:15:06;;;;;;;12.65;2.80;;;;;;;;;;5125167;28;20195;-68
2022/10/17 04:17:32;;;;;;;10.88;2.88;;;;;;;;;;5125149;27;20198;-68
2022/10/17 04:19:59;;;;;;;5.95;2.72;;;;;;;;;;5125071;28;20206;-68
2022/10/17 04:22:26;;;;;;;8.38;2.75;;;;;;;;;;5124982;28;20398;-68
2022/10/17 04:24:52;;;;;;;8.73;3.08;;;;;;;;;;5124748;28;20199;-68
2022/10/17 04:27:19;;;;;;;3.03;2.50;;;;;;;;;;5124100;27;20409;-68
2022/10/17 04:29:45;;;;;;;8.32;2.88;;;;;;;;;;5124451;28;20502;-68
2022/10/17 04:32:11;;;;;;;8.23;2.47;;;;;;;;;;5124937;28;20247;-68
2022/10/17 04:34:38;;;;;;;5.15;2.78;;;;;;;;;;5124838;28;20199;-68
2022/10/17 04:37:04;;;;;;;4.93;2.88;;;;;;;;;;5124632;28;20548;-68
2022/10/17 04:39:31;;;;;;;9.45;2.90;;;;;;;;;;5124742;28;20226;-68
2022/10/17 04:41:58;;;;;;;8.02;2.97;;;;;;;;;;5124769;28;20573;-68
2022/10/17 04:44:24;;;;;;;7.72;2.83;;;;;;;;;;5124764;28;20201;-68
2022/10/17 04:46:50;;;;;;;7.57;2.78;;;;;;;;;;5124772;28;20202;-68
2022/10/17 04:49:17;;;;;;;14.90;2.65;;;;;;;;;;5124260;28;20276;-68
2022/10/17 04:51:43;;;;;;;4.70;2.60;;;;;;;;;;5124357;28;20202;-68
2022/10/17 04:54:09;;;;;;;6.47;2.70;;;;;;;;;;5124473;28;20202;-68
2022/10/17 04:56:37;;;;;;;5.18;2.92;;;;;;;;;;5124338;28;20194;-68
2022/10/17 04:59:03;;;;;;;5.18;2.80;;;;;;;;;;5124247;28;20379;-68
2022/10/17 05:01:29;;;;;;;9.07;3.10;;;;;;;;;;5124418;28;20198;-69
2022/10/17 05:03:56;;;;;;;8.13;3.20;;;;;;;;;;5124320;27;20195;-68
2022/10/17 05:06:23;;;;;;;6.68;3.20;;;;;;;;;;5124159;28;20203;-68
2022/10/17 05:08:49;;;;;;;10.32;3.80;;;;;;;;;;5124062;28;20225;-68
2022/10/17 05:11:17;;;;;;;6.45;3.35;;;;;;;;;;5124340;28;20490;-68
2022/10/17 05:13:44;;;;;;;8.05;3.28;;;;;;;;;;5124027;27;20213;-68
2022/10/17 05:16:11;;;;;;;4.45;4.05;;;;;;;;;;5123694;28;20203;-68
2022/10/17 05:18:37;;;;;;;7.47;4.03;;;;;;;;;;5123676;28;20237;-68
2022/10/17 05:21:04;;;;;;;10.57;3.60;;;;;;;;;;5124144;27;20207;-68
2022/10/17 05:23:30;;;;;;;6.88;3.33;;;;;;;;;;5124072;28;20194;-68
2022/10/17 05:25:56;;;;;;;3.97;3.20;;;;;;;;;;5123936;27;20202;-71
2022/10/17 05:28:23;;;;;;;5.90;3.20;;;;;;;;;;5123569;28;20522;-71
2022/10/17 05:30:50;;;;;;;5.75;3.60;;;;;;;;;;5123819;28;20519;-71
2022/10/17 05:33:17;;;;;;;14.43;3.90;;;;;;;;;;5123748;28;20199;-70
2022/10/17 05:35:43;;;;;;;5.53;3.20;;;;;;;;;;5123959;28;20430;-70
2022/10/17 05:38:09;;;;;;;5.40;3.20;;;;;;;;;;5123415;28;20203;-70
2022/10/17 05:40:37;;;;;;;6.63;3.13;;;;;;;;;;5123609;28;20516;-70
2022/10/17 05:43:03;;;;;;;8.18;3.20;;;;;;;;;;5123611;28;20401;-70
2022/10/17 05:45:29;;;;;;;6.82;3.03;;;;;;;;;;5123420;28;20209;-70
2022/10/17 05:47:57;;;;;;;6.45;3.60;;;;;;;;;;5122904;28;20222;-70
2022/10/17 05:50:24;;;;;;;7.25;3.35;;;;;;;;;;5123454;28;20230;-70
2022/10/17 05:52:52;;;;;;;4.10;3.13;;;;;;;;;;5123371;28;20195;-70
2022/10/17 05:55:18;;;;;;;7.18;3.40;;;;;;;;;;5123298;28;20195;-71
2022/10/17 05:57:45;;;;;;;3.85;2.92;;;;;;;;;;5122957;28;20204;-71
2022/10/17 06:00:12;;;;;;;5.22;2.72;;;;;;;;;;5123022;28;20195;-70
2022/10/17 06:02:38;;;;;;;8.32;3.20;;;;;;;;;;5123181;28;20203;-70
2022/10/17 06:05:06;;;;;;;8.48;3.60;;;;;;;;;;5122970;28;20470;-57
2022/10/17 06:07:32;;;;;;;8.70;3.22;;;;;;;;;;5105993;28;20222;-56
2022/10/17 06:09:58;;;;;;;5.45;3.15;;;;;;;;;;5105526;28;20225;-57
2022/10/17 06:12:25;;;;;;;8.18;3.33;;;;;;;;;;5113014;28;20253;-57
2022/10/17 06:14:51;;;;;;;11.82;3.78;;;;;;;;;;5115986;28;20534;-59
2022/10/17 06:17:17;;;;;;;14.50;3.58;;;;;;;;;;5113515;28;20698;-58
2022/10/17 06:19:44;;;;;;;9.43;4.20;;;;;;;;;;5113057;28;20218;-58
2022/10/17 06:22:12;;;;;;;9.98;3.90;;;;;;;;;;5111360;28;20415;-55
2022/10/17 06:24:38;;;;;;;10.30;5.05;;;;;;;;;;5115055;28;20215;-56
2022/10/17 06:27:04;;;;;;;9.32;4.30;;;;;;;;;;5114047;28;20214;-57
2022/10/17 06:29:30;;;;;;;8.15;4.00;;;;;;;;;;5114202;28;20227;-57
2022/10/17 06:31:57;;;;;;;12.52;4.70;;;;;;;;;;5115767;28;20215;-57
2022/10/17 06:34:23;;;;;;;15.43;4.65;;;;;;;;;;5112632;27;20218;-57
2022/10/17 06:36:49;;;;;;;13.98;4.93;;;;;;;;;;5114576;28;20217;-57
2022/10/17 06:39:17;;;;;;;17.27;5.28;;;;;;;;;;5114807;28;20517;-57
2022/10/17 06:41:44;;;;;;;25.67;5.43;;;;;;;;;;5115410;28;20210;-56
2022/10/17 06:44:10;;;;;;;21.10;5.72;;;;;;;;;;5115016;28;20241;-56
2022/10/17 06:46:37;;;;;;;24.15;6.40;;;;;;;;;;5114632;28;20293;-59
2022/10/17 06:49:04;;;;;;;17.10;6.70;;;;;;;;;;5095457;28;20265;-59
2022/10/17 06:51:30;;;;;;;17.40;5.75;;;;;;;;;;5114897;28;20526;-59
2022/10/17 06:53:57;;;;;;;31.58;6.45;;;;;;;;;;5115791;28;20210;-59
2022/10/17 06:56:24;;;;;;;35.95;7.03;;;;;;;;;;5115056;28;20233;-56
2022/10/17 06:58:51;;;;;;;19.38;6.10;;;;;;;;;;5114029;28;20274;-57
2022/10/17 07:01:18;;;;;;;13.98;5.97;;;;;;;;;;5114337;28;20211;-58
2022/10/17 07:03:47;;;;;;;14.45;6.00;;;;;;;;;;5115394;28;20211;-58
2022/10/17 07:06:14;;;;;;;11.10;5.65;;;;;;;;;;5115438;28;20217;-57
2022/10/17 07:08:42;;;;;;;14.95;5.05;;;;;;;;;;5115263;28;20227;-58
2022/10/17 07:11:09;;;;;;;10.43;5.20;;;;;;;;;;5114978;28;20533;-57
2022/10/17 07:13:37;;;;;;;9.10;5.50;;;;;;;;;;5115463;28;20452;-58
2022/10/17 07:16:03;;;;;;;13.20;5.53;;;;;;;;;;5114680;28;20211;-57
2022/10/17 07:18:29;;;;;;;12.35;5.80;;;;;;;;;;5113866;28;20514;-57
2022/10/17 07:20:56;;;;;;;11.55;5.82;;;;;;;;;;5114110;28;20226;-57
2022/10/17 07:23:22;;;;;;;14.65;5.78;;;;;;;;;;5113724;28;20211;-58
2022/10/17 07:25:48;;;;;;;6.35;4.35;;;;;;;;;;5115022;28;20211;-57
2022/10/17 07:28:14;;;;;;;15.63;4.55;;;;;;;;;;5115042;28;20469;-58
2022/10/17 07:30:43;;;;;;;13.13;4.68;;;;;;;;;;5115218;28;20215;-57
2022/10/17 07:33:09;;;;;;;6.75;4.15;;;;;;;;;;5114559;28;20430;-57
2022/10/17 07:35:39;;;;;;;6.13;4.30;;;;;;;;;;5114702;28;20431;-58
2022/10/17 07:38:05;;;;;;;13.82;4.18;;;;;;;;;;5113664;28;21354;-58
2022/10/17 07:40:32;;;;;;;5.05;3.70;;;;;;;;;;5118945;28;20203;-58
2022/10/17 07:42:58;;;;;;;8.57;4.20;;;;;;;;;;5118099;28;20454;-58
2022/10/17 07:45:26;;;;;;;4.85;3.67;;;;;;;;;;5118591;28;20217;-57
2022/10/17 07:47:56;;;;;;;11.10;3.65;;;;;;;;;;5117798;28;20237;-58
2022/10/17 07:50:23;;;;;;;10.95;3.67;;;;;;;;;;5118875;28;20468;-57
2022/10/17 07:52:49;;;;;;;4.80;3.20;;;;;;;;;;5118088;28;20544;-57
2022/10/17 07:55:15;;;;;;;4.72;3.40;;;;;;;;;;5118743;28;20211;-58
2022/10/17 07:57:42;;;;;;;3.47;2.80;;;;;;;;;;5118921;28;20288;-57
2022/10/17 08:00:09;;;;;;;13.23;3.22;;;;;;;;;;5118574;28;20394;-58
2022/10/17 08:02:35;;;;;;;10.20;3.35;;;;;;;;;;5118125;28;20210;-58
2022/10/17 08:05:03;;;;;;;5.13;3.28;;;;;;;;;;5117838;28;20211;-58
2022/10/17 08:07:30;;;;;;;6.63;3.15;;;;;;;;;;5117262;28;20238;-58
2022/10/17 08:09:56;;;;;;;14.50;3.20;;;;;;;;;;5116786;28;20459;-58
2022/10/17 08:12:23;;;;;;;5.03;2.75;;;;;;;;;;5117367;28;20233;-58
2022/10/17 08:14:50;;;;;;;5.68;2.95;;;;;;;;;;5117549;28;20214;-58
2022/10/17 08:17:16;;;;;;;7.35;2.55;;;;;;;;;;5116869;28;20219;-58
2022/10/17 08:19:43;;;;;;;2.85;2.65;;;;;;;;;;5117005;28;20245;-58
2022/10/17 08:22:10;;;;;;;5.40;3.00;;;;;;;;;;5117730;28;20538;-58
2022/10/17 08:24:36;;;;;;;7.43;3.22;;;;;;;;;;5117652;28;20206;-59
2022/10/17 08:27:10;;;;;;;5.70;2.40;;;;;;;;;;5118118;28;20211;-59
2022/10/17 08:29:36;;;;;;;4.60;2.88;;;;;;;;;;5117185;28;20607;-59
2022/10/17 08:32:02;;;;;;;2.55;2.33;;;;;;;;;;5118803;28;20218;-59
2022/10/17 08:34:28;;;;;;;6.30;3.10;;;;;;;;;;5117190;28;20228;-58
2022/10/17 08:36:55;;;;;;;4.88;2.70;;;;;;;;;;5117805;28;20509;-59
2022/10/17 08:39:22;;;;;;;5.40;2.50;;;;;;;;;;5117307;28;20199;-58
2022/10/17 08:41:54;;;;;;;2.90;2.70;;;;;;;;;;5118001;28;20568;-58
2022/10/17 08:44:25;;;;;;;2.60;2.40;;;;;;;;;;5117472;28;20207;-58
2022/10/17 08:46:53;;;;;;;4.78;2.47;;;;;;;;;;5116782;28;20199;-58
2022/10/17 08:49:25;;;;;;;5.28;2.30;;;;;;;;;;5117071;28;20768;-58
2022/10/17 08:51:59;;;;;;;6.00;2.38;;;;;;;;;;5116583;28;20211;-58
2022/10/17 08:54:40;;;;;;;2.63;2.38;;;;;;;;;;5117446;27;20210;-58
2022/10/17 08:57:09;;;;;;;2.70;2.60;;;;;;;;;;5116832;28;20287;-59
2022/10/17 08:59:35;;;;;;;3.15;2.45;;;;;;;;;;5117234;28;20207;-59
2022/10/17 09:02:04;;;;;;;5.20;2.25;;;;;;;;;;5117223;28;20545;-59
2022/10/17 09:04:38;;;;;;;9.63;2.63;;;;;;;;;;5116755;28;20294;-59
2022/10/17 09:07:05;;;;;;;8.77;2.42;;;;;;;;;;5116464;28;20559;-58
2022/10/17 09:09:38;;;;;;;4.10;2.15;;;;;;;;;;5116407;28;20231;-59
2022/10/17 09:12:12;;;;;;;1.98;1.88;;;;;;;;;;5116813;28;20476;-58
2022/10/17 09:14:48;;;;;;;7.50;2.30;;;;;;;;;;5117423;28;20211;-59
2022/10/17 09:17:18;;;;;;;3.83;2.10;;;;;;;;;;5116153;27;20207;-59
2022/10/17 09:19:46;;;;;;;8.18;2.40;;;;;;;;;;5117027;28;20207;-58
2022/10/17 09:22:14;;;;;;;2.05;1.95;;;;;;;;;;5117015;27;20232;-59
2022/10/17 09:24:43;;;;;;;3.63;2.17;;;;;;;;;;5116461;28;20211;-58
2022/10/17 09:27:15;;;;;;;8.60;2.30;;;;;;;;;;5117069;28;20413;-59
2022/10/17 09:29:42;;;;;;;4.13;2.10;;;;;;;;;;5116656;28;20253;-59
2022/10/17 09:32:16;;;;;;;3.40;1.98;;;;;;;;;;5116842;28;20293;-59
2022/10/17 09:34:43;;;;;;;5.78;2.40;;;;;;;;;;5116952;28;20228;-59
2022/10/17 09:37:11;;;;;;;6.82;2.47;;;;;;;;;;5115938;28;20219;-58
2022/10/17 09:39:37;;;;;;;5.93;2.08;;;;;;;;;;5115687;28;20214;-57
2022/10/17 09:42:05;;;;;;;3.40;2.28;;;;;;;;;;5116595;28;20451;-58
2022/10/17 09:44:32;;;;;;;4.38;2.00;;;;;;;;;;5116615;28;20222;-58
2022/10/17 09:47:06;;;;;;;5.03;2.22;;;;;;;;;;5115758;28;20215;-57
2022/10/17 09:49:33;;;;;;;7.90;2.30;;;;;;;;;;5115868;28;20576;-60
2022/10/17 09:52:00;;;;;;;4.32;1.98;;;;;;;;;;5116074;28;20387;-58
2022/10/17 09:54:28;;;;;;;9.45;1.90;;;;;;;;;;5116285;28;20210;-58
2022/10/17 09:56:59;;;;;;;6.43;2.38;;;;;;;;;;5115119;28;20406;-58
2022/10/17 09:59:31;;;;;;;4.93;1.65;;;;;;;;;;5115509;28;20284;-57
2022/10/17 10:02:07;;;;;;;1.80;1.70;;;;;;;;;;5115582;28;20211;-58
2022/10/17 10:04:33;;;;;;;6.00;2.78;;;;;;;;;;5115903;28;20206;-57
2022/10/17 10:07:03;;;;;;;4.80;2.13;;;;;;;;;;5116436;28;20211;-58
2022/10/17 10:09:31;;;;;;;3.08;2.35;;;;;;;;;;5115850;28;20231;-58
2022/10/17 10:11:58;;;;;;;5.35;2.00;;;;;;;;;;5115862;28;20215;-58
2022/10/17 10:14:28;;;;;;;12.35;7.00;;;;;;;;;;5116111;28;20207;-58
2022/10/17 10:16:56;;;;;;;6.28;3.40;;;;;;;;;;5115371;28;20210;-58
2022/10/17 10:19:27;;;;;;;3.45;2.45;;;;;;;;;;5115661;28;20207;-58
2022/10/17 10:21:57;;;;;;;3.92;2.38;;;;;;;;;;5115840;28;20545;-58
2022/10/17 10:24:25;;;;;;;7.97;3.88;;;;;;;;;;5115524;27;20530;-60
2022/10/17 10:26:53;;;;;;;5.43;2.10;;;;;;;;;;5115312;28;20248;-57
2022/10/17 10:29:21;;;;;;;8.20;3.33;;;;;;;;;;5114766;28;20549;-58
2022/10/17 10:31:48;;;;;;;4.68;2.95;;;;;;;;;;5114937;28;20317;-57
2022/10/17 10:34:19;;;;;;;9.77;3.55;;;;;;;;;;5114835;28;20217;-57
2022/10/17 10:36:48;;;;;;;3.88;2.90;;;;;;;;;;5115587;28;20430;-57
2022/10/17 10:39:23;;;;;;;5.13;3.17;;;;;;;;;;5115329;28;20221;-57
2022/10/17 10:41:50;;;;;;;4.88;2.45;;;;;;;;;;5113623;28;20408;-58
2022/10/17 10:44:17;;;;;;;6.93;2.60;;;;;;;;;;5115536;28;20237;-58
2022/10/17 10:46:43;;;;;;;9.02;2.03;;;;;;;;;;5115155;28;20252;-59
2022/10/17 10:49:28;;;;;;;6.20;4.13;;;;;;;;;;5114610;28;20553;-59
2022/10/17 10:51:58;;;;;;;3.47;2.03;;;;;;;;;;5115458;28;20306;-59
2022/10/17 10:54:28;;;;;;;11.05;3.17;;;;;;;;;;5115521;28;20430;-59
2022/10/17 10:56:56;;;;;;;4.25;2.33;;;;;;;;;;5114085;28;20214;-58
2022/10/17 10:59:25;;;;;;;7.22;2.97;;;;;;;;;;5115352;28;20213;-58
2022/10/17 11:01:54;;;;;;;2.92;2.50;;;;;;;;;;5115214;28;20554;-58
2022/10/17 11:04:24;;;;;;;4.40;2.10;;;;;;;;;;5115196;28;20248;-59
2022/10/17 11:06:52;;;;;;;3.20;2.70;;;;;;;;;;5115014;28;20412;-58
2022/10/17 11:09:25;;;;;;;6.95;2.10;;;;;;;;;;5114292;28;21152;-58
2022/10/17 11:11:55;;;;;;;7.55;3.15;;;;;;;;;;5114088;28;20307;-59
2022/10/17 11:14:24;;;;;;;4.18;2.97;;;;;;;;;;5117366;28;20214;-59
2022/10/17 11:16:55;;;;;;;7.45;2.50;;;;;;;;;;5119336;28;20210;-60
2022/10/17 11:19:24;;;;;;;4.07;3.75;;;;;;;;;;5119784;28;20209;-59
2022/10/17 11:21:59;;;;;;;7.03;3.05;;;;;;;;;;5119855;27;20478;-60
2022/10/17 11:24:29;;;;;;;2.75;1.88;;;;;;;;;;5118410;28;20223;-59
2022/10/17 11:27:00;;;;;;;2.35;2.15;;;;;;;;;;5113948;28;20517;-59
2022/10/17 11:29:28;;;;;;;1.70;1.70;;;;;;;;;;5117394;28;20533;-59
2022/10/17 11:31:56;;;;;;;4.20;2.05;;;;;;;;;;5118589;28;20218;-59
2022/10/17 11:34:25;;;;;;;4.53;2.70;;;;;;;;;;5118604;27;20426;-59
2022/10/17 11:36:52;;;;;;;6.35;4.03;;;;;;;;;;5117990;28;20237;-58
2022/10/17 11:39:20;;;;;;;4.70;2.13;;;;;;;;;;5118261;28;20225;-58
2022/10/17 11:41:49;;;;;;;12.27;4.18;;;;;;;;;;5118009;28;20306;-58
2022/10/17 11:44:19;;;;;;;2.08;1.85;;;;;;;;;;5118098;28;20481;-59
2022/10/17 11:46:47;;;;;;;5.13;1.40;;;;;;;;;;5117201;28;20218;-58
2022/10/17 11:49:15;;;;;;;5.93;2.35;;;;;;;;;;5117887;27;20271;-59
2022/10/17 11:51:43;;;;;;;6.38;2.42;;;;;;;;;;5118847;28;20282;-61
2022/10/17 11:54:13;;;;;;;3.95;1.85;;;;;;;;;;5114080;28;20211;-60
2022/10/17 11:56:42;;;;;;;7.68;2.17;;;;;;;;;;5119080;27;20529;-59
2022/10/17 11:59:24;;;;;;;2.22;1.98;;;;;;;;;;5118034;28;20217;-59
2022/10/17 12:01:52;;;;;;;4.88;1.40;;;;;;;;;;5118431;28;20214;-59
2022/10/17 12:04:24;;;;;;;7.05;1.40;;;;;;;;;;5119052;27;20410;-59
2022/10/17 12:06:55;;;;;;;6.97;1.88;;;;;;;;;;5119072;28;20635;-59
2022/10/17 12:09:26;;;;;;;5.15;2.00;;;;;;;;;;5117996;28;20237;-59
2022/10/17 12:11:55;;;;;;;4.32;1.35;;;;;;;;;;5119092;28;20207;-59
2022/10/17 12:14:36;;;;;;;2.97;1.33;;;;;;;;;;5118553;27;20206;-59
2022/10/17 12:17:03;;;;;;;4.60;1.63;;;;;;;;;;5117807;28;20217;-59
2022/10/17 12:19:31;;;;;;;3.88;1.38;;;;;;;;;;5117688;28;20207;-59
2022/10/17 12:22:12;;;;;;;7.15;2.00;;;;;;;;;;5118499;28;20202;-59
2022/10/17 12:24:40;;;;;;;1.75;1.27;;;;;;;;;;5104012;28;20214;-59
2022/10/17 12:27:25;;;;;;;7.18;1.33;;;;;;;;;;5117047;28;20210;-58
2022/10/17 12:29:58;;;;;;;3.95;1.00;;;;;;;;;;5117259;28;20226;-59
2022/10/17 12:32:24;;;;;;;1.48;0.93;;;;;;;;;;5117791;28;20331;-59
2022/10/17 12:34:51;;;;;;;10.95;1.80;;;;;;;;;;5118422;28;20463;-59
2022/10/17 12:37:32;;;;;;;3.08;1.17;;;;;;;;;;5117951;28;20394;-59
2022/10/17 12:39:59;;;;;;;2.55;1.10;;;;;;;;;;5117433;28;20210;-60
2022/10/17 12:42:43;;;;;;;2.45;0.90;;;;;;;;;;5118008;28;20208;-59
2022/10/17 12:45:25;;;;;;;1.58;1.08;;;;;;;;;;5117010;28;20210;-59
2022/10/17 12:47:52;;;;;;;2.30;1.10;;;;;;;;;;5116575;28;20214;-59
2022/10/17 12:50:46;;;;;;;3.67;1.10;;;;;;;;;;5118187;28;20226;-59
2022/10/17 12:53:15;;;;;;;3.70;1.10;;;;;;;;;;5117880;28;20218;-59
2022/10/17 12:55:41;;;;;;;5.82;1.45;;;;;;;;;;5117591;28;20211;-59
2022/10/17 12:58:12;;;;;;;3.88;1.50;;;;;;;;;;5117270;28;20203;-59
2022/10/17 13:00:42;;;;;;;2.35;1.20;;;;;;;;;;5117339;28;20427;-59
2022/10/17 13:03:13;;;;;;;3.92;1.20;;;;;;;;;;5116751;28;20210;-59
2022/10/17 13:05:40;;;;;;;2.67;1.20;;;;;;;;;;5118299;28;20403;-59
2022/10/17 13:08:13;;;;;;;4.25;1.17;;;;;;;;;;5116586;28;20486;-59
2022/10/17 13:10:39;;;;;;;4.43;1.35;;;;;;;;;;5117615;28;20269;-59
2022/10/17 13:13:08;;;;;;;2.97;1.10;;;;;;;;;;5118125;28;20240;-59
2022/10/17 13:15:36;;;;;;;5.88;1.70;;;;;;;;;;5117813;28;20282;-59
2022/10/17 13:18:02;;;;;;;5.10;1.42;;;;;;;;;;5116023;28;20210;-59
2022/10/17 13:20:30;;;;;;;5.63;2.03;;;;;;;;;;5117799;28;20235;-59
2022/10/17 13:22:57;;;;;;;3.38;1.15;;;;;;;;;;5117387;28;20555;-59
2022/10/17 13:25:24;;;;;;;6.38;1.50;;;;;;;;;;5116950;28;20277;-60
2022/10/17 13:27:52;;;;;;;8.43;1.17;;;;;;;;;;5116711;28;20486;-60
2022/10/17 13:30:26;;;;;;;5.32;2.60;;;;;;;;;;5116249;28;20226;-59
2022/10/17 13:32:53;;;;;;;7.85;1.35;;;;;;;;;;5116793;28;20261;-60
2022/10/17 13:35:23;;;;;;;1.85;1.40;;;;;;;;;;5117025;27;20210;-59
2022/10/17 13:37:52;;;;;;;3.03;0.82;;;;;;;;;;5115361;28;20216;-60
2022/10/17 13:40:19;;;;;;;1.75;0.90;;;;;;;;;;5116316;28;20207;-60
2022/10/17 13:42:46;;;;;;;6.03;1.08;;;;;;;;;;5116460;28;20218;-60
2022/10/17 13:45:16;;;;;;;3.05;1.00;;;;;;;;;;5115647;28;20425;-60
2022/10/17 13:47:43;;;;;;;3.42;1.10;;;;;;;;;;5115344;28;20207;-60
2022/10/17 13:50:16;;;;;;;2.92;0.93;;;;;;;;;;5116568;28;20540;-60
2022/10/17 13:52:43;;;;;;;2.72;0.88;;;;;;;;;;5116609;28;20390;-60
2022/10/17 13:55:14;;;;;;;0.98;0.88;;;;;;;;;;5112156;28;20217;-60
2022/10/17 13:57:41;;;;;;;3.42;1.05;;;;;;;;;;5115826;28;20214;-60
2022/10/17 14:00:11;;;;;;;2.42;1.08;;;;;;;;;;5115876;28;20212;-60
2022/10/17 14:02:37;;;;;;;3.28;1.52;;;;;;;;;;5116297;28;20403;-59
2022/10/17 14:05:06;;;;;;;4.65;1.58;;;;;;;;;;5115844;28;20210;-58
2022/10/17 14:07:35;;;;;;;2.63;1.52;;;;;;;;;;5114858;28;20245;-58
2022/10/17 14:10:04;;;;;;;6.22;1.60;;;;;;;;;;5115151;28;20537;-58
2022/10/17 14:12:32;;;;;;;1.38;1.30;;;;;;;;;;5115451;28;20214;-59
2022/10/17 14:15:02;;;;;;;3.17;1.25;;;;;;;;;;5115370;28;20395;-59
2022/10/17 14:17:29;;;;;;;4.18;1.40;;;;;;;;;;5114988;28;20203;-58
2022/10/17 14:19:56;;;;;;;5.03;1.77;;;;;;;;;;5115408;28;20232;-58
2022/10/17 14:22:26;;;;;;;4.72;1.63;;;;;;;;;;5116100;28;20199;-58
2022/10/17 14:24:53;;;;;;;5.18;1.52;;;;;;;;;;5116110;28;20214;-57
2022/10/17 14:27:27;;;;;;;5.68;1.45;;;;;;;;;;5114905;28;20210;-59
2022/10/17 14:29:56;;;;;;;2.05;1.30;;;;;;;;;;5115062;28;20459;-58
2022/10/17 14:32:23;;;;;;;2.25;1.30;;;;;;;;;;5114875;28;20210;-58
2022/10/17 14:34:52;;;;;;;5.78;2.20;;;;;;;;;;5115778;28;20211;-59
2022/10/17 14:37:25;;;;;;;2.10;1.63;;;;;;;;;;5115072;28;20395;-58
2022/10/17 14:39:53;;;;;;;7.18;1.90;;;;;;;;;;5114451;28;20217;-58
2022/10/17 14:42:20;;;;;;;3.42;1.55;;;;;;;;;;5115437;28;20286;-59
2022/10/17 14:44:49;;;;;;;4.65;1.85;;;;;;;;;;5115180;28;20225;-59
2022/10/17 14:47:18;;;;;;;2.30;1.52;;;;;;;;;;5114586;28;20210;-59
2022/10/17 14:49:48;;;;;;;4.40;1.58;;;;;;;;;;5114014;28;20207;-59
2022/10/17 14:52:26;;;;;;;3.92;1.85;;;;;;;;;;5115856;28;20195;-59